• Join FlightAware (Why Join?)
  • Login
  • US Flag 
09:44PM EST


 

Airport Tracker/Info


-or-


 

Live Flight TrackerFlight Track Log ✈ N231NU ✈ 23-Mar-2014 ✈ KMWC - KALB

Flight Track Log - Related Links

Times and Time Zones

All times are in EDT time to prevent confusion due to time zone crossing. See the N231NU flight status page for this flight to view local times or setup timezone preferences in your user account.

Time Position Orientation Groundspeed Altitude Reporting Facility
EDT Latitude Longitude Course Direction KTS MPH feet Rate Location/Type
06:12PM 43.1000 -88.0333 180° South 99 114 1,100  Level KMKE
06:13PM 43.0833 -88.0333 180° South 110 127 2,900 1,134 Climbing KMKE
06:14PM 43.0664 -88.0136 140° Southeast 103 119 3,500 1,143 Climbing Chicago Center
06:15PM 43.0472 -87.9706 121° Southeast 104 120 4,900 1,258 Climbing Chicago Center
06:16PM 43.0300 -87.9356 124° Southeast 109 125 6,100 1,161 Climbing Chicago Center
06:17PM 43.0131 -87.9008 124° Southeast 109 125 7,300 1,104 Climbing Chicago Center
06:18PM 42.9983 -87.8597 116° Southeast 118 136 8,400 1,104 Climbing Chicago Center
06:19PM 42.9858 -87.8131 110° East 127 146 9,600 1,210 Climbing Chicago Center
06:20PM 42.9678 -87.7564 114° Southeast 133 153 10,900 726 Climbing Chicago Center
06:21PM 42.9594 -87.6983 101° East 163 188 11,100 97 Climbing Chicago Center
06:22PM 42.9600 -87.6342 89° East 169 194 11,100 -48 Level Chicago Center
06:23PM 42.9617 -87.5656 88° East 178 205 11,000 581 Descending Chicago Center
06:24PM 42.9631 -87.5053 88° East 162 186 12,300 968 Climbing Chicago Center
06:25PM 42.9619 -87.4503 92° East 149 171 13,000 339 Climbing Chicago Center
06:26PM 42.9631 -87.3697 89° East 185 213 13,000  Level Chicago Center
06:27PM 42.9678 -87.2944 85° East 196 226 13,000  Level Chicago Center
06:28PM 42.9689 -87.2233 89° East 195 224 13,000  Level Chicago Center
06:29PM 42.9711 -87.1497 88° East 194 223 13,000  Level Chicago Center
06:30PM 42.9736 -87.0767 87° East 194 223 13,000  Level Chicago Center
06:31PM 42.9764 -86.9886 88° East 194 223 13,000  Level Chicago Center
06:32PM 42.9878 -86.9211 77° East 188 216 13,000  Level Chicago Center
06:33PM 43.0033 -86.8514 73° East 187 215 13,000  Level Chicago Center
06:34PM 43.0175 -86.7819 74° East 188 216 13,000  Level Chicago Center
06:35PM 43.0311 -86.7136 75° East 188 216 13,000  Level Chicago Center
06:36PM 43.0467 -86.6425 73° East 188 216 13,000  Level Chicago Center
06:38PM 43.0633 -86.5625 74° East 188 216 13,000  Level Chicago Center
06:39PM 43.0772 -86.4936 75° East 188 216 13,000  Level Chicago Center
06:41PM 43.1061 -86.3558 74° East 188 216 13,000  Level Cleveland Center
06:42PM 43.1228 -86.2728 75° East 188 216 13,000  Level Cleveland Center
06:43PM 43.1347 -86.2189 73° East 188 216 13,000  Level Chicago Center
06:44PM 43.1508 -86.1364 75° East 188 216 13,000  Level Chicago Center
06:45PM 43.1650 -86.0667 74° East 188 216 13,000  Level Chicago Center
06:46PM 43.1739 -85.9944 80° East 189 217 13,000  Level Chicago Center
06:47PM 43.1731 -85.9192 91° East 193 222 13,000  Level Chicago Center
06:48PM 43.1744 -85.8444 89° East 193 222 13,000  Level Chicago Center
06:49PM 43.1756 -85.7706 89° East 193 222 13,000  Level Chicago Center
06:50PM 43.1767 -85.6972 89° East 193 222 13,000  Level Chicago Center
06:51PM 43.1783 -85.6083 88° East 193 222 13,000  Level Chicago Center
06:52PM 43.1797 -85.5339 89° East 193 222 13,000  Level Chicago Center
06:53PM 43.1808 -85.4583 89° East 194 223 13,000  Level Chicago Center
06:54PM 43.1811 -85.3833 90° East 195 224 13,000  Level Chicago Center
06:55PM 43.1828 -85.3097 88° East 195 224 13,000  Level Chicago Center
06:56PM 43.1836 -85.2342 89° East 196 226 13,000  Level Chicago Center
06:57PM 43.1847 -85.1458 89° East 196 226 13,000  Level Chicago Center
06:58PM 43.1853 -85.0706 89° East 196 226 13,000  Level Chicago Center
06:59PM 43.1867 -84.9958 89° East 196 226 13,000  Level Chicago Center
07:00PM 43.1869 -84.9197 90° East 197 227 13,000  Level Chicago Center
07:01PM 43.1881 -84.8450 89° East 197 227 13,000  Level Chicago Center
07:02PM 43.1883 -84.7686 90° East 198 228 13,000 48 Level Chicago Center
07:03PM 43.1892 -84.6783 89° East 198 228 13,100 48 Climbing Chicago Center
07:04PM 43.1903 -84.6036 89° East 197 227 13,100  Level Chicago Center
07:05PM 43.1908 -84.5289 89° East 197 227 13,100  Level Chicago Center
07:06PM 43.1903 -84.4528 91° East 197 227 13,100  Level Chicago Center
07:08PM 43.1900 -84.3628 90° East 198 228 13,100  Level Cleveland Center
07:09PM 43.1903 -84.2908 90° East 198 228 13,100  Level Cleveland Center
07:10PM 43.1908 -84.2158 89° East 198 228 13,100  Level Cleveland Center
07:11PM 43.1914 -84.1397 89° East 198 228 13,100  Level Cleveland Center
07:12PM 43.1914 -84.0656 90° East 198 228 13,100  Level Cleveland Center
07:13PM 43.1925 -83.9756 89° East 198 228 13,100  Level Cleveland Center
07:14PM 43.1911 -83.9008 91° East 198 228 13,100  Level Cleveland Center
07:15PM 43.1908 -83.8267 90° East 198 228 13,100  Level Cleveland Center
07:16PM 43.1914 -83.7522 89° East 197 227 13,100  Level Cleveland Center
07:17PM 43.1917 -83.6781 90° East 197 227 13,100  Level Cleveland Center
07:18PM 43.1919 -83.6036 90° East 197 227 13,100  Level Cleveland Center
07:19PM 43.1908 -83.5125 91° East 197 227 13,100  Level Cleveland Center
07:20PM 43.1911 -83.4383 90° East 197 227 13,100  Level Cleveland Center
07:21PM 43.1914 -83.3636 90° East 197 227 13,100  Level Cleveland Center
07:22PM 43.1903 -83.2892 91° East 197 227 13,100  Level Cleveland Center
07:23PM 43.1900 -83.2131 90° East 197 227 13,100  Level Cleveland Center
07:24PM 43.1900 -83.1381 90° East 197 227 13,100  Level Cleveland Center
07:25PM 43.1892 -83.0478 91° East 197 227 13,100  Level Cleveland Center
07:26PM 43.1886 -82.9733 91° East 197 227 13,100  Level Cleveland Center
07:27PM 43.1881 -82.8969 91° East 197 227 13,100  Level Cleveland Center
07:28PM 43.1875 -82.8222 91° East 197 227 13,100  Level Cleveland Center
07:29PM 43.1869 -82.7469 91° East 197 227 13,100  Level Cleveland Center
07:30PM 43.1858 -82.6700 91° East 199 229 13,100  Level Cleveland Center
07:31PM 43.1858 -82.5939 90° East 200 230 13,100  Level Cleveland Center
07:32PM 43.1839 -82.5031 92° East 199 229 13,100  Level Cleveland Center
07:33PM 43.1839 -82.4292 90° East 199 229 13,100  Level Cleveland Center
07:34PM 43.1831 -82.3525 91° East 199 229 13,100 -61 Level Cleveland Center
07:35PM 43.1667 -82.2833 108° East 200 230 13,000 -62 Descending Toronto Center
07:36PM 43.1667 -82.2167 90° East 200 230 13,000  Level Toronto Center
07:37PM 43.1667 -82.1500 90° East 200 230 13,000  Level Toronto Center
07:38PM 43.1667 -82.0500 90° East 200 230 13,000  Level Toronto Center
07:39PM 43.1500 -81.9833 109° East 200 230 13,000  Level Toronto Center
07:40PM 43.1500 -81.9167 90° East 200 230 13,000  Level Toronto Center
07:41PM 43.1667 -81.8500 71° East 200 230 13,000  Level Toronto Center
07:42PM 43.1667 -81.7667 90° East 200 230 13,000  Level Toronto Center
07:43PM 43.1667 -81.6833 90° East 200 230 13,000  Level Toronto Center
07:44PM 43.1667 -81.6167 90° East 200 230 13,000  Level Toronto Center
07:45PM 43.1500 -81.5333 105° East 190 219 13,000  Level Toronto Center
07:46PM 43.1500 -81.4667 90° East 190 219 13,000  Level Toronto Center
07:47PM 43.1500 -81.4000 90° East 190 219 13,000  Level Toronto Center
07:48PM 43.1500 -81.3167 90° East 190 219 13,000  Level Toronto Center
07:49PM 43.1500 -81.2500 90° East 190 219 13,000  Level Toronto Center
07:50PM 43.1500 -81.1667 90° East 190 219 13,000  Level Toronto Center
07:51PM 43.1500 -81.1000 90° East 190 219 13,000  Level Toronto Center
07:52PM 43.1333 -81.0333 109° East 200 230 13,000  Level Toronto Center
07:53PM 43.1333 -80.9500 90° East 200 230 13,000  Level Toronto Center
07:55PM 43.1500 -80.8000 81° East 190 219 13,000  Level Toronto Center
07:56PM 43.1500 -80.7333 90° East 190 219 13,000  Level Toronto Center
07:57PM 43.1500 -80.6667 90° East 190 219 13,000  Level Toronto Center
07:58PM 43.1333 -80.5667 103° East 200 230 13,000  Level Toronto Center
07:59PM 43.1333 -80.5000 90° East 200 230 13,000  Level Toronto Center
08:00PM 43.1333 -80.4333 90° East 200 230 13,000  Level Toronto Center
08:01PM 43.1333 -80.3333 90° East 190 219 13,000  Level Toronto Center
08:02PM 43.1333 -80.2667 90° East 200 230 13,000  Level Toronto Center
08:03PM 43.1333 -80.2000 90° East 190 219 13,000  Level Toronto Center
08:04PM 43.1167 -80.1333 109° East 190 219 13,000  Level Toronto Center
08:05PM 43.1167 -80.0667 90° East 190 219 13,000  Level Toronto Center
08:06PM 43.1167 -79.9833 90° East 190 219 13,000  Level Toronto Center
08:07PM 43.1167 -79.9000 90° East 190 219 13,000  Level Toronto Center
08:08PM 43.1167 -79.8333 90° East 190 219 13,000  Level Toronto Center
08:09PM 43.1167 -79.7667 90° East 190 219 13,000  Level Toronto Center
08:10PM 43.1167 -79.7000 90° East 200 230 13,000  Level Toronto Center
08:11PM 43.1000 -79.6167 105° East 190 219 13,000  Level Toronto Center
08:12PM 43.1000 -79.5500 90° East 190 219 13,000  Level Toronto Center
08:13PM 43.1000 -79.4667 90° East 190 219 13,000  Level Toronto Center
08:14PM 43.1000 -79.4000 90° East 190 219 13,000  Level Toronto Center
08:15PM 43.1000 -79.3167 90° East 200 230 13,000  Level Toronto Center
08:16PM 43.1000 -79.2500 90° East 200 230 13,000  Level Toronto Center
08:17PM 43.0833 -79.1833 109° East 200 230 13,000  Level Toronto Center
08:18PM 43.0833 -79.1000 90° East 200 230 13,000 50 Level Toronto Center
08:19PM 43.0833 -79.0167 90° East 200 230 13,100 50 Climbing Toronto Center
08:20PM 43.0833 -78.9500 90° East 200 230 13,100  Level Toronto Center
08:21PM 43.0833 -78.8833 90° East 200 230 13,100  Level Toronto Center
08:22PM 43.0833 -78.7833 90° East 200 230 13,100  Level Toronto Center
08:23PM 43.0667 -78.7167 109° East 200 230 13,100  Level Toronto Center
08:24PM 43.0667 -78.6500 90° East 200 230 13,100  Level Toronto Center
08:25PM 43.0667 -78.5833 90° East 200 230 13,100  Level Toronto Center
08:26PM 43.0500 -78.5000 105° East 200 230 13,100  Level Toronto Center
08:27PM 43.0500 -78.4167 90° East 200 230 13,100  Level Toronto Center
08:28PM 43.0500 -78.3500 90° East 200 230 13,100  Level Toronto Center
08:29PM 43.0333 -78.2833 109° East 200 230 13,100  Level Toronto Center
08:30PM 43.0333 -78.2000 90° East 200 230 13,100  Level Toronto Center
08:31PM 43.0525 -78.1894 22° Northeast 197 227 13,100  Level Cleveland Center
08:32PM 43.0489 -78.1136 94° East 199 229 13,100  Level Cleveland Center
08:33PM 43.0442 -78.0381 95° East 199 229 13,100  Level Cleveland Center
08:34PM 43.0414 -77.9628 93° East 199 229 13,100  Level Cleveland Center
08:35PM 43.0367 -77.8883 95° East 199 229 13,100  Level Cleveland Center
08:36PM 43.0322 -77.7975 94° East 199 229 13,100  Level Cleveland Center
08:37PM 43.0283 -77.7208 94° East 199 229 13,100  Level Cleveland Center
08:38PM 43.0242 -77.6453 94° East 199 229 13,100  Level Cleveland Center
08:39PM 43.0200 -77.5692 94° East 199 229 13,100  Level Cleveland Center
08:40PM 43.0169 -77.4922 93° East 199 229 13,100  Level Cleveland Center
08:41PM 43.0122 -77.4158 95° East 199 229 13,100  Level Cleveland Center
08:42PM 43.0075 -77.3394 95° East 200 230 13,100  Level Cleveland Center
08:43PM 43.0028 -77.2633 95° East 200 230 13,100  Level Cleveland Center
08:44PM 42.9981 -77.1722 94° East 200 230 13,100  Level Cleveland Center
08:45PM 42.9933 -77.0956 95° East 200 230 13,100  Level Cleveland Center
08:46PM 42.9889 -77.0186 94° East 200 230 13,100  Level Cleveland Center
08:47PM 42.9844 -76.9425 95° East 201 231 13,100  Level Cleveland Center
08:48PM 42.9797 -76.8664 95° East 201 231 13,100  Level Cleveland Center
08:49PM 42.9750 -76.7897 95° East 201 231 13,100 -49 Level Cleveland Center
08:50PM 42.9694 -76.7019 95° East 201 231 13,000 -48 Descending Cleveland Center
08:51PM 42.9650 -76.6275 95° East 201 231 13,000  Level Cleveland Center
08:52PM 42.9603 -76.5519 95° East 201 231 13,000  Level Cleveland Center
08:53PM 42.9556 -76.4761 95° East 201 231 13,000  Level Cleveland Center
08:54PM 42.9508 -76.4008 95° East 200 230 13,000  Level Cleveland Center
08:55PM 42.9458 -76.3244 95° East 201 231 13,000  Level Cleveland Center
08:56PM 42.9408 -76.2342 94° East 202 232 13,000  Level Boston Center
08:57PM 42.9347 -76.1589 96° East 201 231 13,000  Level Boston Center
08:58PM 42.9300 -76.0833 95° East 201 231 13,000  Level Boston Center
08:59PM 42.9278 -76.0539 96° East 201 231 13,000  Level Boston Center
09:00PM 42.9231 -75.9775 95° East 201 231 13,000  Level Boston Center
09:01PM 42.9178 -75.9033 96° East 201 231 13,000 50 Level Boston Center
09:02PM 42.9119 -75.8269 96° East 200 230 13,100 50 Climbing Boston Center
09:03PM 42.9061 -75.7531 96° East 200 230 13,100  Level Boston Center
09:04PM 42.9017 -75.6769 95° East 201 231 13,100  Level Boston Center
09:05PM 42.8961 -75.6017 96° East 201 231 13,100  Level Boston Center
09:06PM 42.8911 -75.5292 95° East 200 230 13,100 50 Level Boston Center
09:07PM 42.8842 -75.4394 96° East 199 229 13,200 48 Climbing Boston Center
09:08PM 42.8789 -75.3644 95° East 199 229 13,200  Level Boston Center
09:09PM 42.8728 -75.2894 96° East 199 229 13,200  Level Boston Center
09:10PM 42.8672 -75.2150 96° East 199 229 13,200  Level Boston Center
09:11PM 42.8617 -75.1403 96° East 199 229 13,200 -65 Level Boston Center
09:12PM 42.8575 -75.0939 97° East 201 231 13,100  Descending Boston Center
09:12PM 42.8561 -75.0658 94° East 199 229 13,200  Climbing Boston Center
09:13PM 42.8533 -75.0161 94° East 202 232 13,100  Descending Boston Center
09:13PM 42.8503 -74.9900 99° East 199 229 13,200 -200 Climbing Boston Center
09:14PM 42.8464 -74.9406 96° East 201 231 12,900 -400 Descending Boston Center
09:14PM 42.8436 -74.9136 98° East 200 230 12,800 -600 Descending Boston Center
09:15PM 42.8400 -74.8619 95° East 207 238 12,300 -590 Descending Boston Center
09:15PM 42.8378 -74.8361 97° East 205 236 12,200 -571 Descending Boston Center
09:16PM 42.8331 -74.7864 97° East 209 241 11,700 -581 Descending Boston Center
09:16PM 42.8314 -74.7478 93° East 208 239 11,600 -492 Descending Boston Center
09:17PM 42.8267 -74.7081 99° East 204 235 11,200 -393 Descending Boston Center
09:17PM 42.8242 -74.6733 96° East 199 229 11,200 -91 Level Boston Center
09:18PM 42.8211 -74.6242 95° East 193 222 11,100  Descending Boston Center
09:18PM 42.8183 -74.5969 98° East 191 220 11,200  Climbing Boston Center
09:19PM 42.8144 -74.5575 98° East 179 206 11,100 -295 Descending Boston Center
09:19PM 42.8136 -74.5297 92° East 181 208 10,900 -689 Descending Boston Center
09:20PM 42.8153 -74.4847 87° East 196 226 10,400 -590 Descending Boston Center
09:20PM 42.8175 -74.4550 84° East 194 223 10,300 -800 Descending Boston Center
09:21PM 42.8183 -74.4128 88° East 194 223 9,600 -1,000 Descending Boston Center
09:21PM 42.8200 -74.3836 86° East 191 220 9,300 -885 Descending Boston Center
09:22PM 42.8206 -74.3433 89° East 186 214 8,700 -787 Descending Boston Center
09:22PM 42.8208 -74.3136 89° East 187 215 8,500 -590 Descending Boston Center
09:23PM 42.8208 -74.2733 90° East 184 212 8,100 -689 Descending Boston Center
09:23PM 42.8217 -74.2453 88° East 182 209 7,800 -600 Descending Boston Center
09:24PM 42.8206 -74.2061 92° East 178 205 7,500 -689 Descending Boston Center
09:24PM 42.8225 -74.1736 85° East 177 204 7,100 -885 Descending Boston Center
09:25PM 42.8233 -74.1339 88° East 174 200 6,600 -787 Descending Boston Center
09:25PM 42.8228 -74.1075 92° East 176 203 6,300 -689 Descending Boston Center
09:26PM 42.8225 -74.0694 91° East 174 200 5,900 -787 Descending Boston Center
09:26PM 42.8258 -74.0433 80° East 174 200 5,500 -787 Descending Boston Center
09:27PM 42.8294 -74.0078 82° East 167 192 5,100 -600 Descending Boston Center
09:27PM 42.8336 -73.9817 78° East 169 194 4,900 -700 Descending Boston Center
09:28PM 42.8408 -73.9472 74° East 163 188 4,400 -885 Descending Boston Center
09:28PM 42.8439 -73.9211 81° East 166 191 4,000 -871 Descending Boston Center
09:29PM 42.8503 -73.8833 77° East 167 192 3,500 -787 Descending Boston Center
09:29PM 42.8533 -73.8589 80° East 166 191 3,200 -400 Descending Boston Center
09:30PM 42.8594 -73.8222 77° East 165 190 3,100 -194 Descending Boston Center
09:30PM 42.8594 -73.7989 90° East 161 185 3,000 -203 Descending Boston Center
09:31PM 42.8508 -73.7639 109° East 157 181 2,900 -98 Descending Boston Center
09:31PM 42.8425 -73.7389 114° Southeast 158 182 2,900 -194 Level Boston Center
09:32PM 42.8214 -73.7247 154° Southeast 157 181 2,700 -310 Descending Boston Center
09:32PM 42.8028 -73.7142 157° South 158 182 2,600 -295 Descending Boston Center
09:33PM 42.7794 -73.7078 169° South 146 168 2,400 -469 Descending Boston Center
09:33PM 42.7642 -73.7108 188° South 138 159 2,100 -778 Descending Boston Center
09:34PM 42.7517 -73.7189 205° Southwest 103 119 1,700 -787 Descending Boston Center
09:34PM 42.7506 -73.7350 265° West 90 104 1,300 -581 Descending Boston Center
09:35PM 42.7492 -73.7442 258° West 58 67 1,100 -414 Descending Boston Center
09:35PM 42.7503 -73.7600 275° West 70 81 900 -400 Descending Boston Center
09:36PM 42.7486 -73.7703 258° West 63 72 700 -393 Descending Boston Center
09:36PM 42.7497 -73.7861 275° West 70 81 500 -387 Descending Boston Center